Edward Oldendorff — 9HA3853 — position and weather

sailwx.info

Track history (hours):
 
Tides and Currents Weather Stations Pressure Air Temp Water Temp Dewpoint Dewpoint Depression Visibility Wind Speed Wind Dir Waves Ship Positions

Edward Oldendorff

Last reported at 2018-Jul-21 13:26 UTC. Time now 2018-Jul-23 15:11 UTC.
Position N 01°04' E 105°27'.

Length 180 m; draft 7.3 m.

Type: Cargo ship. MMSI: 256219000.

Date/timePositionNaut miles runAvg speedWind from/ knotsBaromVisibWave heightAir tempDewpointWater temp
2018-Jul-21 13:26N 01°04' E 105°27'613.0
2018-Jul-21 12:59N 01°09' E 105°24'813.3
2018-Jul-21 12:24N 01°13' E 105°17'613.6
2018-Jul-21 11:58N 01°15' E 105°12'713.7
2018-Jul-21 11:27N 01°18' E 105°05'813.9
2018-Jul-21 10:53N 01°19' E 104°58'913.8
2018-Jul-21 10:12N 01°22' E 104°49'313.8
2018-Jul-21 10:00N 01°23' E 104°46'713.9
2018-Jul-21 09:29N 01°24' E 104°39'714.1
2018-Jul-21 08:59N 01°23' E 104°32'813.6
2018-Jul-21 08:21N 01°21' E 104°24'513.7
2018-Jul-21 07:58N 01°17' E 104°20'713.8
2018-Jul-21 07:29N 01°16' E 104°13'713.9
2018-Jul-21 06:58N 01°15' E 104°06'613.2
2018-Jul-21 06:30N 01°14' E 104°00'510.4
2018-Jul-21 06:00N 01°14' E 103°55'2 2.8
2018-Jul-21 05:22N 01°16' E 103°54'0 0.0
2018-Jul-21 04:42N 01°16' E 103°54'0 0.1
2018-Jul-21 04:27N 01°16' E 103°54'0 0.0
2018-Jul-21 03:58N 01°16' E 103°54'0 0.1
2018-Jul-21 03:27N 01°16' E 103°54'0 0.0
2018-Jul-21 02:57N 01°16' E 103°54'0 0.0
2018-Jul-21 02:30N 01°16' E 103°54'0 0.0
2018-Jul-21 01:54N 01°16' E 103°54'0 0.1
2018-Jul-21 01:27N 01°16' E 103°54'0 0.1
2018-Jul-21 00:57N 01°16' E 103°54'0 0.0
2018-Jul-21 00:30N 01°16' E 103°54'0 0.0
2018-Jul-21 00:00N 01°16' E 103°54'0 0.0
2018-Jul-20 23:30N 01°16' E 103°54'0 0.1
2018-Jul-20 22:58N 01°16' E 103°54'0 0.0
2018-Jul-20 22:27N 01°16' E 103°54'0 0.1
2018-Jul-20 21:54N 01°16' E 103°54'0 0.1
2018-Jul-20 21:28N 01°16' E 103°54'0 0.2
2018-Jul-20 20:58N 01°16' E 103°54'0 0.1
2018-Jul-20 20:31N 01°16' E 103°54'3 5.5
2018-Jul-20 19:59N 01°15' E 103°57'1 2.7
2018-Jul-20 19:31N 01°14' E 103°58'2 3.7
2018-Jul-20 19:00N 01°14' E 103°56'4 8.3
2018-Jul-20 18:31N 01°12' E 103°53'510.3
2018-Jul-20 18:01N 01°09' E 103°48'611.2
2018-Jul-20 17:30N 01°06' E 103°44'5 9.3
2018-Jul-20 17:00N 01°03' E 103°40'5 9.4
2018-Jul-20 16:30N 01°05' E 103°35'5 9.2
2018-Jul-20 16:00N 01°07' E 103°31'510.0
2018-Jul-20 15:30N 01°10' E 103°27'5 9.8
2018-Jul-20 14:59N 01°12' E 103°23'5 9.5
2018-Jul-20 14:30N 01°15' E 103°19'5 9.7
2018-Jul-20 13:59N 01°18' E 103°16'510.4
2018-Jul-20 13:29N 01°22' E 103°11'  
Track history (hours):
 
Tides and Currents Weather Stations Pressure Air Temp Water Temp Dewpoint Dewpoint Depression Visibility Wind Speed Wind Dir Waves Ship Positions

Edward Oldendorff

Last reported at 2018-Jul-21 13:26 UTC. Time now 2018-Jul-23 15:11 UTC.
Position N 01°04' E 105°27'.

Length 180 m; draft 7.3 m.

Type: Cargo ship. MMSI: 256219000.

Date/timePositionNaut miles runAvg speedWind from/ knotsBaromVisibWave heightAir tempDewpointWater temp
2018-Jul-21 13:26N 01°04' E 105°27'613.0
2018-Jul-21 12:59N 01°09' E 105°24'813.3
2018-Jul-21 12:24N 01°13' E 105°17'613.6
2018-Jul-21 11:58N 01°15' E 105°12'713.7
2018-Jul-21 11:27N 01°18' E 105°05'813.9
2018-Jul-21 10:53N 01°19' E 104°58'913.8
2018-Jul-21 10:12N 01°22' E 104°49'313.8
2018-Jul-21 10:00N 01°23' E 104°46'713.9
2018-Jul-21 09:29N 01°24' E 104°39'714.1
2018-Jul-21 08:59N 01°23' E 104°32'813.6
2018-Jul-21 08:21N 01°21' E 104°24'513.7
2018-Jul-21 07:58N 01°17' E 104°20'713.8
2018-Jul-21 07:29N 01°16' E 104°13'713.9
2018-Jul-21 06:58N 01°15' E 104°06'613.2
2018-Jul-21 06:30N 01°14' E 104°00'510.4
2018-Jul-21 06:00N 01°14' E 103°55'2 2.8
2018-Jul-21 05:22N 01°16' E 103°54'0 0.0
2018-Jul-21 04:42N 01°16' E 103°54'0 0.1
2018-Jul-21 04:27N 01°16' E 103°54'0 0.0
2018-Jul-21 03:58N 01°16' E 103°54'0 0.1
2018-Jul-21 03:27N 01°16' E 103°54'0 0.0
2018-Jul-21 02:57N 01°16' E 103°54'0 0.0
2018-Jul-21 02:30N 01°16' E 103°54'0 0.0
2018-Jul-21 01:54N 01°16' E 103°54'0 0.1
2018-Jul-21 01:27N 01°16' E 103°54'0 0.1
2018-Jul-21 00:57N 01°16' E 103°54'0 0.0
2018-Jul-21 00:30N 01°16' E 103°54'0 0.0
2018-Jul-21 00:00N 01°16' E 103°54'0 0.0
2018-Jul-20 23:30N 01°16' E 103°54'0 0.1
2018-Jul-20 22:58N 01°16' E 103°54'0 0.0
2018-Jul-20 22:27N 01°16' E 103°54'0 0.1
2018-Jul-20 21:54N 01°16' E 103°54'0 0.1
2018-Jul-20 21:28N 01°16' E 103°54'0 0.2
2018-Jul-20 20:58N 01°16' E 103°54'0 0.1
2018-Jul-20 20:31N 01°16' E 103°54'3 5.5
2018-Jul-20 19:59N 01°15' E 103°57'1 2.7
2018-Jul-20 19:31N 01°14' E 103°58'2 3.7
2018-Jul-20 19:00N 01°14' E 103°56'4 8.3
2018-Jul-20 18:31N 01°12' E 103°53'510.3
2018-Jul-20 18:01N 01°09' E 103°48'611.2
2018-Jul-20 17:30N 01°06' E 103°44'5 9.3
2018-Jul-20 17:00N 01°03' E 103°40'5 9.4
2018-Jul-20 16:30N 01°05' E 103°35'5 9.2
2018-Jul-20 16:00N 01°07' E 103°31'510.0
2018-Jul-20 15:30N 01°10' E 103°27'5 9.8
2018-Jul-20 14:59N 01°12' E 103°23'5 9.5
2018-Jul-20 14:30N 01°15' E 103°19'5 9.7
2018-Jul-20 13:59N 01°18' E 103°16'510.4
2018-Jul-20 13:29N 01°22' E 103°11'  

Dump ship's entire track history